Latest Weather Observations for Gold Coast Seaway

IDQ60801

Issued at 5:02 am EST Sunday 14 February 2016 (issued every 30 minutes, with the page automatically refreshed every 10 minutes)

About weather observations | Map of weather stations | Latest weather observations for QLD | Other Formats
Station Details ID: 040764 Name: GOLD COAST SEAWAY Lat: -27.94 Lon: 153.43 Height: 2.98 m
Data from the previous 72 hours. | See also: Recent months at Gold Coast Seaway
Date/Time
EST
Temp
°C
App
Temp
°C
Dew
Point
Rel
Hum
%
Delta-T
°C
Wind Press
QNH
hPa
Press
MSL
hPa
Rain
since 9 am
mm
Dir
 
Spd
km/h
Gust
km/h
Spd
kts
Gust
kts
14/05:00am 22.2 21.5 20.3 89 1.2 S 24 33 13 18 1007.9 1007.9 2.2
14/04:30am 22.2 22.0 20.5 90 1.1 S 22 32 12 17 1007.8 1007.8 2.2
14/04:00am 22.3 22.2 20.8 91 1.0 S 22 33 12 18 1007.7 1007.7 2.2
14/03:30am 22.3 22.6 20.8 91 1.0 S 20 30 11 16 1007.9 1007.9 2.2
14/03:00am 22.3 21.9 20.9 92 0.9 S 24 32 13 17 1007.9 1007.9 2.2
14/02:30am 22.4 22.9 21.2 93 0.8 S 20 30 11 16 1008.0 1008.0 2.2
14/02:00am 22.4 22.9 21.2 93 0.8 S 20 30 11 16 1008.5 1008.5 2.2
14/01:30am 22.5 23.4 21.5 94 0.7 S 19 28 10 15 1008.8 1008.8 2.2
14/01:00am 22.7 23.6 21.5 93 0.8 S 19 28 10 15 1009.0 1009.0 2.2
14/12:30am 23.0 24.3 21.6 92 0.9 S 17 28 9 15 1009.5 1009.5 2.2
14/12:00am 22.8 22.8 21.6 93 0.8 S 24 32 13 17 1010.0 1010.0 2.2
 
Date/Time
EST
Temp
°C
App
Temp
°C
Dew
Point
Rel
Hum
%
Delta-T
°C
Wind Press
QNH
hPa
Press
MSL
hPa
Rain
since 9 am
mm
Dir
 
Spd
km/h
Gust
km/h
Spd
kts
Gust
kts
13/11:30pm 23.0 23.3 21.5 91 1.0 S 22 30 12 16 1010.2 1010.2 2.2
13/11:00pm 22.9 22.5 21.7 93 0.8 S 26 35 14 19 1010.2 1010.2 2.2
13/10:30pm 23.0 22.5 21.5 91 1.0 S 26 39 14 21 1010.3 1010.3 2.2
13/10:00pm 22.8 22.8 20.9 89 1.2 S 22 30 12 16 1010.4 1010.4 2.2
13/09:30pm 23.0 22.5 20.7 87 1.5 S 24 33 13 18 1010.6 1010.6 2.2
13/09:00pm 23.2 22.3 20.7 86 1.6 S 26 32 14 17 1010.8 1010.8 2.2
13/08:30pm 23.2 22.3 20.7 86 1.6 S 26 32 14 17 1010.8 1010.8 2.2
13/08:00pm 23.5 21.4 21.0 86 1.6 S 33 41 18 22 1010.9 1010.9 2.2
13/07:30pm 23.8 21.2 21.5 87 1.5 SSE 37 46 20 25 1010.6 1010.6 2.2
13/07:00pm 24.1 21.2 21.6 86 1.7 SSE 39 50 21 27 1010.4 1010.4 2.2
13/06:30pm 24.5 21.1 22.0 86 1.7 SSE 43 52 23 28 1010.0 1010.0 2.2
13/06:00pm 24.9 21.8 22.6 87 1.5 SSE 43 52 23 28 1009.9 1009.9 2.2
13/05:30pm 25.4 22.9 23.1 87 1.6 SSE 41 50 22 27 1009.8 1009.8 2.2
13/05:00pm 25.7 22.3 22.4 82 2.2 SSE 44 54 24 29 1009.8 1009.8 2.2
13/04:30pm 25.8 22.8 22.9 84 2.0 SSE 43 54 23 29 1009.7 1009.7 2.2
13/04:00pm 26.5 23.8 23.4 83 2.1 SSE 43 54 23 29 1009.7 1009.7 2.2
13/03:30pm 26.2 23.4 23.5 85 1.8 SE 44 56 24 30 1009.7 1009.7 2.2
13/03:00pm 27.2 24.5 23.4 80 2.6 SE 43 54 23 29 1009.7 1009.7 2.2
13/02:30pm 27.0 24.5 23.7 82 2.3 SE 43 52 23 28 1009.9 1009.9 2.2
13/02:00pm 27.6 26.3 24.4 83 2.2 SSE 39 50 21 27 1010.1 1010.1 2.2
13/01:30pm 27.0 25.0 24.6 87 1.7 SE 43 54 23 29 1010.4 1010.4 2.2
13/01:00pm 26.9 25.6 25.1 90 1.3 SSE 41 50 22 27 1010.8 1010.8 2.2
13/12:30pm 26.9 26.0 25.7 93 0.8 SE 41 50 22 27 1011.1 1011.1 2.2
13/12:00pm 24.7 23.2 24.7 100 0.0 SSE 41 50 22 27 1011.2 1011.2 2.2
13/11:30am 23.3 20.4 23.3 100 0.0 S 44 54 24 29 1011.6 1011.6 2.2
13/11:00am 23.5 22.4 23.5 100 0.0 SSE 35 41 19 22 1011.7 1011.7 2.0
13/10:30am 23.9 23.4 23.9 100 0.0 SSE 33 43 18 23 1011.8 1011.8 0.4
13/10:00am 24.5 24.1 24.0 97 0.3 S 33 43 18 23 1011.8 1011.8 0.0
13/09:30am 24.6 24.0 23.4 93 0.8 S 32 39 17 21 1011.8 1011.8 0.0
13/09:00am 24.1 22.2 22.0 88 1.4 S 35 48 19 26 1012.0 1012.0 0.0
13/08:30am 24.6 22.0 22.1 86 1.7 S 39 50 21 27 1011.9 1011.9 0.0
13/08:00am 24.3 21.8 22.4 89 1.3 SSE 39 52 21 28 1011.8 1011.8 0.0
13/07:30am 24.1 21.6 21.6 86 1.7 S 37 48 20 26 1011.4 1011.4 0.0
13/07:00am 23.8 21.2 20.7 83 2.0 S 35 50 19 27 1011.1 1011.1 0.0
13/06:43am 24.1 22.8 21.4 85 1.8 S 30 48 16 26 1011.0 1011.0 0.0
13/06:30am 23.2 21.7 20.9 87 1.5 S 30 41 16 22 1010.9 1010.9 0.0
13/06:00am 22.8 20.5 20.5 87 1.5 S 33 43 18 23 1010.8 1010.8 0.0
13/05:30am 22.8 20.8 20.7 88 1.4 S 32 39 17 21 1010.8 1010.8 0.0
13/05:00am 22.6 21.3 21.4 93 0.8 S 30 41 16 22 1010.7 1010.7 0.0
13/04:30am 22.7 20.7 21.9 95 0.5 SSE 35 43 19 23 1010.5 1010.5 0.0
13/04:00am 22.5 21.8 21.1 92 0.9 S 26 35 14 19 1010.7 1010.7 0.0
13/03:30am 22.7 21.2 21.7 94 0.7 S 32 39 17 21 1010.8 1010.8 0.0
13/03:00am 22.9 21.5 22.2 96 0.5 SSE 33 39 18 21 1010.7 1010.7 0.0
13/02:30am 23.1 21.8 22.4 96 0.5 SSE 33 41 18 22 1011.0 1011.0 0.0
13/02:00am 23.1 21.3 22.3 95 0.5 SSE 35 44 19 24 1011.0 1011.0 0.0
13/01:30am 23.0 21.8 22.2 95 0.5 S 32 41 17 22 1011.0 1011.0 0.0
13/01:00am 22.9 21.8 21.7 93 0.8 S 30 39 16 21 1011.3 1011.3 0.0
13/12:30am 22.8 22.0 21.6 93 0.8 S 28 33 15 18 1011.9 1011.9 0.0
13/12:00am 23.3 21.9 22.3 94 0.7 SSE 33 39 18 21 1012.2 1012.2 0.0
 
Date/Time
EST
Temp
°C
App
Temp
°C
Dew
Point
Rel
Hum
%
Delta-T
°C
Wind Press
QNH
hPa
Press
MSL
hPa
Rain
since 9 am
mm
Dir
 
Spd
km/h
Gust
km/h
Spd
kts
Gust
kts
12/11:30pm 23.1 22.2 21.5 91 1.1 S 28 37 15 20 1012.5 1012.5 0.0
12/11:00pm 23.3 22.5 21.7 91 1.1 S 28 37 15 20 1012.9 1012.9 0.0
12/10:30pm 23.5 21.9 21.6 89 1.3 S 32 39 17 21 1012.9 1012.9 0.0
12/10:00pm 23.6 22.0 21.5 88 1.4 S 32 39 17 21 1013.1 1013.1 0.0
12/09:30pm 23.7 23.2 21.4 87 1.5 S 26 33 14 18 1013.3 1013.3 0.0
12/09:00pm 23.8 23.1 21.1 85 1.8 S 26 35 14 19 1013.4 1013.4 0.0
12/08:30pm 24.3 21.8 21.6 85 1.8 S 37 46 20 25 1013.2 1013.2 0.0
12/08:00pm 24.6 21.7 22.3 87 1.5 SSE 41 50 22 27 1013.2 1013.2 0.0
12/07:30pm 24.8 21.6 22.5 87 1.5 SSE 43 52 23 28 1013.0 1013.0 0.0
12/07:00pm 24.9 21.6 21.6 82 2.2 SSE 41 50 22 27 1013.1 1013.1 0.0
12/06:30pm 24.9 22.4 21.6 82 2.2 SSE 37 46 20 25 1012.9 1012.9 0.0
12/06:00pm 25.4 22.6 21.1 77 2.8 SSE 37 50 20 27 1012.8 1012.8 0.0
12/05:30pm 25.9 22.6 20.9 74 3.3 SSE 39 50 21 27 1012.6 1012.6 0.0
12/05:00pm 26.6 23.4 21.1 72 3.6 SSE 39 48 21 26 1012.5 1012.5 0.0
12/04:30pm 27.0 22.9 20.8 69 4.1 SSE 43 50 23 27 1012.3 1012.3 0.0
12/04:00pm 27.5 23.7 21.3 69 4.1 SSE 43 50 23 27 1012.3 1012.3 0.0
12/03:30pm 27.8 23.9 21.1 67 4.4 SSE 43 52 23 28 1012.2 1012.2 0.0
12/03:00pm 28.1 23.9 20.9 65 4.8 SE 44 54 24 29 1012.3 1012.3 0.0
12/02:30pm 28.7 25.4 21.5 65 4.8 SE 41 52 22 28 1012.3 1012.3 0.0
12/02:00pm 27.9 24.4 21.2 67 4.5 SE 41 52 22 28 1012.3 1012.3 0.0
12/01:30pm 29.2 26.5 21.9 64 4.9 SE 39 48 21 26 1012.4 1012.4 0.0
12/01:00pm 28.8 26.0 22.5 68 4.3 SE 41 50 22 27 1012.5 1012.5 0.0
12/12:30pm 27.8 24.5 21.6 69 4.1 SE 41 52 22 28 1012.6 1012.6 0.0
12/12:00pm 28.4 26.4 23.3 74 3.5 SE 39 48 21 26 1012.8 1012.8 0.0
12/11:30am 28.1 26.1 23.2 74 3.3 SE 39 50 21 27 1013.0 1013.0 0.0
12/11:00am 28.3 26.6 23.7 76 3.2 SE 39 46 21 25 1013.3 1013.3 0.0
12/10:30am 27.9 27.0 23.9 79 2.8 SE 35 46 19 25 1013.4 1013.4 0.0
12/10:00am 27.2 25.8 23.0 78 2.9 SE 35 43 19 23 1013.6 1013.6 0.0
12/09:30am 25.7 24.4 23.2 86 1.7 SE 35 43 19 23 1013.5 1013.5 0.0
12/09:00am 27.2 28.2 24.8 87 1.7 SSE 28 39 15 21 1013.4 1013.4 1.4
12/08:30am 26.1 25.8 23.8 87 1.6 SSE 32 37 17 20 1013.5 1013.5 1.4
12/08:00am 25.6 25.3 23.8 90 1.2 SSE 32 35 17 19 1013.6 1013.6 1.4
12/07:30am 24.7 24.8 23.3 92 1.0 S 28 33 15 18 1013.4 1013.4 1.4
12/07:00am 23.5 22.4 22.5 94 0.7 S 32 37 17 20 1013.3 1013.3 1.4
12/06:30am 22.4 23.2 22.4 100 0.0 S 22 32 12 17 1013.2 1013.2 1.4
12/06:00am 22.0 23.1 22.0 100 0.0 S 19 26 10 14 1013.0 1013.0 1.4
12/05:30am 21.6 22.9 21.6 100 0.0 S 17 24 9 13 1012.8 1012.8 1.4
12/05:00am 21.8 22.8 21.8 100 0.0 S 19 26 10 14 1012.6 1012.6 1.4
12/04:30am 21.7 22.7 21.7 100 0.0 S 19 24 10 13 1012.5 1012.5 1.4
12/04:00am 21.7 22.5 21.7 100 0.0 S 20 26 11 14 1012.4 1012.4 1.4
12/03:30am 21.7 23.0 21.7 100 0.0 S 17 20 9 11 1012.4 1012.4 1.4
12/03:00am 21.7 23.4 21.7 100 0.0 S 15 22 8 12 1012.4 1012.4 1.4
12/02:30am 21.9 23.3 21.9 100 0.0 S 17 26 9 14 1012.4 1012.4 1.2
12/02:00am 21.8 23.2 21.8 100 0.0 S 17 24 9 13 1012.4 1012.4 1.0
12/01:30am 22.2 23.8 22.2 100 0.0 S 17 24 9 13 1012.5 1012.5 1.0
12/01:00am 23.2 24.2 22.2 94 0.7 S 20 28 11 15 1012.7 1012.7 0.0
12/12:30am 23.4 24.2 22.4 94 0.7 S 22 30 12 16 1012.7 1012.7 0.0
12/12:00am 24.2 23.4 23.0 93 0.8 SSE 32 41 17 22 1013.0 1013.0 0.0
 
Date/Time
EST
Temp
°C
App
Temp
°C
Dew
Point
Rel
Hum
%
Delta-T
°C
Wind Press
QNH
hPa
Press
MSL
hPa
Rain
since 9 am
mm
Dir
 
Spd
km/h
Gust
km/h
Spd
kts
Gust
kts
11/11:30pm 24.4 23.5 22.8 91 1.1 SE 32 37 17 20 1013.2 1013.2 0.0
11/11:00pm 24.5 23.4 22.9 91 1.1 SE 33 39 18 21 1013.4 1013.4 0.0
11/10:30pm 24.6 23.3 22.5 88 1.4 SE 33 39 18 21 1013.6 1013.6 0.0
11/10:00pm 24.6 23.7 22.8 90 1.2 SE 32 35 17 19 1013.6 1013.6 0.0
11/09:30pm 24.8 24.6 23.4 92 1.0 SE 30 35 16 19 1013.5 1013.5 0.0
11/09:00pm 24.8 23.9 22.9 89 1.3 SE 32 37 17 20 1013.6 1013.6 0.0
11/08:30pm 24.6 23.2 22.3 87 1.5 SE 33 37 18 20 1013.6 1013.6 0.0
11/08:00pm 24.8 23.6 22.7 88 1.4 SE 33 39 18 21 1013.4 1013.4 0.0
11/07:30pm 24.8 23.3 22.7 88 1.4 SE 35 41 19 22 1013.2 1013.2 0.0
11/07:00pm 25.1 24.1 23.0 88 1.4 SE 33 39 18 21 1013.0 1013.0 0.0
11/06:30pm 25.0 23.2 21.5 81 2.3 SE 33 41 18 22 1012.8 1012.8 0.0
11/06:00pm 25.4 23.7 21.7 80 2.5 SE 33 43 18 23 1012.5 1012.5 0.0
11/05:30pm 26.4 24.4 21.8 76 3.1 SE 35 44 19 24 1012.0 1012.0 0.0
11/05:00pm 26.8 24.4 21.1 71 3.8 SE 35 41 19 22 1011.7 1011.7 0.0
11/04:30pm 27.3 25.3 21.8 72 3.7 SE 35 43 19 23 1011.7 1011.7 0.0
11/04:00pm 27.7 25.8 21.3 68 4.3 SE 33 41 18 22 1011.7 1011.7 0.0
11/03:30pm 28.3 26.6 22.5 71 3.9 SE 35 41 19 22 1011.6 1011.6 0.0
11/03:00pm 28.8 27.3 22.8 70 4.1 SE 35 41 19 22 1011.6 1011.6 0.0
11/02:30pm 28.9 26.8 21.7 65 4.8 SE 35 39 19 21 1011.7 1011.7 0.0
11/02:00pm 29.2 27.1 21.7 64 5.0 SE 35 39 19 21 1011.9 1011.9 0.0
11/01:30pm 29.1 27.9 22.6 68 4.4 SE 33 37 18 20 1012.3 1012.3 0.0
11/01:00pm 29.7 28.8 23.2 68 4.5 SE 33 39 18 21 1012.6 1012.6 0.0
11/12:30pm 28.7 27.0 21.7 66 4.7 SE 33 39 18 21 1012.9 1012.9 0.0
11/12:00pm 29.3 28.2 22.5 67 4.6 SE 32 37 17 20 1013.2 1013.2 0.0
11/11:30am 29.2 28.1 22.4 66 4.6 SE 32 37 17 20 1013.1 1013.1 0.0
11/11:00am 29.1 28.6 22.8 69 4.3 SE 30 35 16 19 1013.2 1013.2 0.0
11/10:30am 28.5 28.7 24.1 77 3.0 SE 30 33 16 18 1013.3 1013.3 0.0
11/10:00am 28.2 28.3 24.0 78 2.9 SSE 30 35 16 19 1013.5 1013.5 0.0
11/09:30am 27.9 28.3 23.7 78 2.9 SSE 28 33 15 18 1013.5 1013.5 0.0
11/09:00am 27.5 28.0 23.9 81 2.5 SSE 28 33 15 18 1013.4 1013.4 0.4
11/08:30am 26.6 26.7 23.3 82 2.3 SSE 28 32 15 17 1013.3 1013.3 0.4
11/08:00am 25.9 26.1 23.4 86 1.7 SSE 28 32 15 17 1013.2 1013.2 0.4
11/07:30am 25.3 26.4 23.7 91 1.1 S 24 30 13 16 1013.0 1013.0 0.4
11/07:00am 24.3 25.4 23.6 96 0.5 S 24 30 13 16 1013.0 1013.0 0.4
11/06:30am 22.6 25.2 22.6 100 0.0 S 13 17 7 9 1012.7 1012.7 0.4
11/06:00am 21.7 23.0 21.7 100 0.0 S 17 20 9 11 1012.5 1012.5 0.4
11/05:30am 21.6 22.9 21.6 100 0.0 S 17 20 9 11 1012.2 1012.2 0.4

Other Formats:

Comma delimited format used in spreadsheet applications
http://www.bom.gov.au/fwo/IDQ60801/IDQ60801.94580.axf

JavaScript Object Notation format (JSON) in row-major order
http://www.bom.gov.au/fwo/IDQ60801/IDQ60801.94580.json